Time,TemperatureF,DewpointF,PressureIn,WindDirection,WindDirectionDegrees,WindSpeedMPH,WindSpeedGustMPH,Humidity,HourlyPrecipIn,Conditions,Clouds,dailyrainin,SoftwareType,DateUTC
2013-04-27 00:01:00,46.0,13.0,-100.00,West,280,2.0,6.0,25,-99.99,,,-99.99,,2013-04-27 00:01:00,
2013-04-27 00:11:00,46.0,13.0,-100.00,West,280,2.0,6.0,25,-99.99,,,-99.99,,2013-04-27 00:11:00,
2013-04-27 00:21:00,45.0,12.0,-100.00,WSW,250,4.0,9.0,25,-99.99,,,-99.99,,2013-04-27 00:21:00,
2013-04-27 00:32:00,45.0,12.0,-100.00,WSW,250,4.0,9.0,25,-99.99,,,-99.99,,2013-04-27 00:32:00,
2013-04-27 00:41:00,45.0,12.0,-100.00,WSW,250,4.0,9.0,25,-99.99,,,-99.99,,2013-04-27 00:41:00,
2013-04-27 00:51:00,45.0,13.0,-100.00,WNW,295,2.0,6.0,26,-99.99,,,-99.99,,2013-04-27 00:51:00,
2013-04-27 01:01:00,45.0,13.0,-100.00,WNW,295,2.0,6.0,26,-99.99,,,-99.99,,2013-04-27 01:01:00,
2013-04-27 01:11:00,45.0,13.0,-100.00,WNW,295,2.0,6.0,26,-99.99,,,-99.99,,2013-04-27 01:11:00,
2013-04-27 01:21:00,42.0,9.0,-100.00,South,185,6.0,9.0,25,-99.99,,,-99.99,,2013-04-27 01:21:00,
2013-04-27 01:32:00,42.0,9.0,-100.00,South,185,6.0,9.0,25,-99.99,,,-99.99,,2013-04-27 01:32:00,
2013-04-27 01:41:00,42.0,9.0,-100.00,South,185,6.0,9.0,25,-99.99,,,-99.99,,2013-04-27 01:41:00,
2013-04-27 01:52:00,43.0,11.0,-100.00,WSW,255,1.0,6.0,26,-99.99,,,-99.99,,2013-04-27 01:52:00,
2013-04-27 02:01:00,43.0,11.0,-100.00,WSW,255,1.0,6.0,26,-99.99,,,-99.99,,2013-04-27 02:01:00,
2013-04-27 02:11:00,43.0,11.0,-100.00,WSW,255,1.0,6.0,26,-99.99,,,-99.99,,2013-04-27 02:11:00,
2013-04-27 02:22:00,43.0,12.0,-100.00,SW,230,3.0,9.0,27,-99.99,,,-99.99,,2013-04-27 02:22:00,
2013-04-27 02:32:00,43.0,12.0,-100.00,SW,230,3.0,9.0,27,-99.99,,,-99.99,,2013-04-27 02:32:00,
2013-04-27 02:42:00,43.0,12.0,-100.00,SW,230,3.0,9.0,27,-99.99,,,-99.99,,2013-04-27 02:42:00,
2013-04-27 02:51:00,42.0,13.0,-100.00,SW,235,5.0,11.0,30,-99.99,,,-99.99,,2013-04-27 02:51:00,
2013-04-27 03:02:00,42.0,13.0,-100.00,SW,235,5.0,11.0,30,-99.99,,,-99.99,,2013-04-27 03:02:00,
2013-04-27 03:11:00,42.0,13.0,-100.00,SW,235,5.0,11.0,30,-99.99,,,-99.99,,2013-04-27 03:11:00,
2013-04-27 03:22:00,41.0,13.0,-100.00,WSW,240,4.0,9.0,32,-99.99,,,-99.99,,2013-04-27 03:22:00,
2013-04-27 03:32:00,41.0,13.0,-100.00,WSW,240,4.0,9.0,32,-99.99,,,-99.99,,2013-04-27 03:32:00,
2013-04-27 03:42:00,41.0,13.0,-100.00,WSW,240,4.0,9.0,32,-99.99,,,-99.99,,2013-04-27 03:42:00,
2013-04-27 03:52:00,40.0,14.0,-100.00,SW,235,4.0,7.0,33,-99.99,,,-99.99,,2013-04-27 03:52:00,
2013-04-27 04:02:00,40.0,14.0,-100.00,SW,235,4.0,7.0,33,-99.99,,,-99.99,,2013-04-27 04:02:00,
2013-04-27 04:12:00,40.0,14.0,-100.00,SW,235,4.0,7.0,33,-99.99,,,-99.99,,2013-04-27 04:12:00,
2013-04-27 04:22:00,39.0,13.0,-100.00,SW,235,7.0,11.0,34,-99.99,,,-99.99,,2013-04-27 04:22:00,
2013-04-27 04:33:00,39.0,13.0,-100.00,SW,235,7.0,11.0,34,-99.99,,,-99.99,,2013-04-27 04:33:00,
2013-04-27 04:43:00,39.0,13.0,-100.00,SW,235,7.0,11.0,34,-99.99,,,-99.99,,2013-04-27 04:43:00,
2013-04-27 04:52:00,37.0,13.0,-100.00,SW,225,6.0,11.0,35,-99.99,,,-99.99,,2013-04-27 04:52:00,
2013-04-27 05:02:00,37.0,13.0,-100.00,SW,225,6.0,11.0,35,-99.99,,,-99.99,,2013-04-27 05:02:00,
2013-04-27 05:12:00,37.0,13.0,-100.00,SW,225,6.0,11.0,35,-99.99,,,-99.99,,2013-04-27 05:12:00,
2013-04-27 05:22:00,36.0,13.0,-100.00,SW,220,6.0,9.0,37,-99.99,,,-99.99,,2013-04-27 05:22:00,
2013-04-27 05:32:00,36.0,13.0,-100.00,SW,220,6.0,9.0,37,-99.99,,,-99.99,,2013-04-27 05:32:00,
2013-04-27 05:42:00,36.0,13.0,-100.00,SW,220,6.0,9.0,37,-99.99,,,-99.99,,2013-04-27 05:42:00,
2013-04-27 05:52:00,35.0,13.0,-100.00,SW,225,4.0,10.0,39,-99.99,,,-99.99,,2013-04-27 05:52:00,
2013-04-27 06:01:00,35.0,13.0,-100.00,SW,225,4.0,10.0,39,-99.99,,,-99.99,,2013-04-27 06:01:00,
2013-04-27 06:12:00,35.0,13.0,-100.00,SW,225,4.0,10.0,39,-99.99,,,-99.99,,2013-04-27 06:12:00,
2013-04-27 06:22:00,35.0,13.0,-100.00,SW,220,4.0,11.0,39,-99.99,,,-99.99,,2013-04-27 06:22:00,
2013-04-27 06:32:00,35.0,13.0,-100.00,SW,220,4.0,11.0,39,-99.99,,,-99.99,,2013-04-27 06:32:00,
2013-04-27 06:41:00,35.0,13.0,-100.00,SW,220,4.0,11.0,39,-99.99,,,-99.99,,2013-04-27 06:41:00,
2013-04-27 06:51:00,35.0,12.0,-100.00,SW,215,3.0,7.0,39,-99.99,,,-99.99,,2013-04-27 06:51:00,
2013-04-27 07:01:00,35.0,12.0,-100.00,SW,215,3.0,7.0,39,-99.99,,,-99.99,,2013-04-27 07:01:00,
2013-04-27 07:11:00,35.0,12.0,-100.00,SW,215,3.0,7.0,39,-99.99,,,-99.99,,2013-04-27 07:11:00,
2013-04-27 07:21:00,33.0,12.0,-100.00,SW,220,4.0,5.0,40,-99.99,,,-99.99,,2013-04-27 07:21:00,
2013-04-27 07:31:00,33.0,12.0,-100.00,SW,220,4.0,5.0,40,-99.99,,,-99.99,,2013-04-27 07:31:00,
2013-04-27 07:42:00,33.0,12.0,-100.00,SW,220,4.0,5.0,40,-99.99,,,-99.99,,2013-04-27 07:42:00,
2013-04-27 07:52:00,31.0,12.0,-100.00,ENE,60,1.0,2.0,44,-99.99,,,-99.99,,2013-04-27 07:52:00,
2013-04-27 08:01:00,31.0,12.0,-100.00,ENE,60,1.0,2.0,44,-99.99,,,-99.99,,2013-04-27 08:01:00,
2013-04-27 08:11:00,31.0,12.0,-100.00,ENE,60,1.0,2.0,44,-99.99,,,-99.99,,2013-04-27 08:11:00,
2013-04-27 08:21:00,31.0,12.0,-100.00,NNE,20,2.0,4.0,44,-99.99,,,-99.99,,2013-04-27 08:21:00,
2013-04-27 08:33:00,31.0,12.0,-100.00,NNE,20,2.0,4.0,44,-99.99,,,-99.99,,2013-04-27 08:33:00,
2013-04-27 08:41:00,31.0,12.0,-100.00,NNE,20,2.0,4.0,44,-99.99,,,-99.99,,2013-04-27 08:41:00,
2013-04-27 08:51:00,29.0,13.0,-100.00,SSE,160,0.0,2.0,51,-99.99,,,-99.99,,2013-04-27 08:51:00,
2013-04-27 09:01:00,29.0,13.0,-100.00,SSE,160,0.0,2.0,51,-99.99,,,-99.99,,2013-04-27 09:01:00,
2013-04-27 09:11:00,29.0,13.0,-100.00,SSE,160,0.0,2.0,51,-99.99,,,-99.99,,2013-04-27 09:11:00,
2013-04-27 09:21:00,28.0,15.0,-100.00,South,180,2.0,2.0,55,-99.99,,,-99.99,,2013-04-27 09:21:00,
2013-04-27 09:33:00,28.0,15.0,-100.00,South,180,2.0,2.0,55,-99.99,,,-99.99,,2013-04-27 09:33:00,
2013-04-27 09:42:00,28.0,15.0,-100.00,South,180,2.0,2.0,55,-99.99,,,-99.99,,2013-04-27 09:42:00,
2013-04-27 09:53:00,27.0,16.0,-100.00,South,185,2.0,4.0,62,-99.99,,,-99.99,,2013-04-27 09:53:00,
2013-04-27 10:02:00,27.0,16.0,-100.00,South,185,2.0,4.0,62,-99.99,,,-99.99,,2013-04-27 10:02:00,
2013-04-27 10:12:00,27.0,16.0,-100.00,South,185,2.0,4.0,62,-99.99,,,-99.99,,2013-04-27 10:12:00,
2013-04-27 10:22:00,27.0,17.0,-100.00,West,275,0.0,2.0,63,-99.99,,,-99.99,,2013-04-27 10:22:00,
2013-04-27 10:32:00,27.0,17.0,-100.00,West,275,0.0,2.0,63,-99.99,,,-99.99,,2013-04-27 10:32:00,
2013-04-27 10:42:00,27.0,17.0,-100.00,West,275,0.0,2.0,63,-99.99,,,-99.99,,2013-04-27 10:42:00,
2013-04-27 10:52:00,27.0,17.0,-100.00,NE,45,2.0,4.0,64,-99.99,,,-99.99,,2013-04-27 10:52:00,
2013-04-27 11:02:00,27.0,17.0,-100.00,NE,45,2.0,4.0,64,-99.99,,,-99.99,,2013-04-27 11:02:00,
2013-04-27 11:11:00,27.0,17.0,-100.00,NE,45,2.0,4.0,64,-99.99,,,-99.99,,2013-04-27 11:11:00,
2013-04-27 11:21:00,28.0,16.0,-100.00,NNE,30,1.0,9.0,61,-99.99,,,-99.99,,2013-04-27 11:21:00,
2013-04-27 11:31:00,28.0,16.0,-100.00,NNE,30,1.0,9.0,61,-99.99,,,-99.99,,2013-04-27 11:31:00,
2013-04-27 11:41:00,28.0,16.0,-100.00,NNE,30,1.0,9.0,61,-99.99,,,-99.99,,2013-04-27 11:41:00,
2013-04-27 11:52:00,28.0,14.0,-100.00,North,10,0.0,7.0,55,-99.99,,,-99.99,,2013-04-27 11:52:00,
2013-04-27 12:01:00,28.0,14.0,-100.00,North,10,0.0,7.0,55,-99.99,,,-99.99,,2013-04-27 12:01:00,
2013-04-27 12:11:00,28.0,14.0,-100.00,North,10,0.0,7.0,55,-99.99,,,-99.99,,2013-04-27 12:11:00,
2013-04-27 12:21:00,27.0,14.0,-100.00,SSW,210,1.0,4.0,57,-99.99,,,-99.99,,2013-04-27 12:21:00,
2013-04-27 12:32:00,27.0,14.0,-100.00,SSW,210,1.0,4.0,57,-99.99,,,-99.99,,2013-04-27 12:32:00,
2013-04-27 12:42:00,27.0,14.0,-100.00,SSW,210,1.0,4.0,57,-99.99,,,-99.99,,2013-04-27 12:42:00,
2013-04-27 12:51:00,26.0,14.0,-100.00,SSW,200,2.0,3.0,61,-99.99,,,-99.99,,2013-04-27 12:51:00,
2013-04-27 13:01:00,26.0,14.0,-100.00,SSW,200,2.0,3.0,61,-99.99,,,-99.99,,2013-04-27 13:01:00,
2013-04-27 13:11:00,26.0,14.0,-100.00,SSW,200,2.0,3.0,61,-99.99,,,-99.99,,2013-04-27 13:11:00,
2013-04-27 13:21:00,26.0,14.0,-100.00,WSW,240,2.0,6.0,60,-99.99,,,-99.99,,2013-04-27 13:21:00,
2013-04-27 13:32:00,26.0,14.0,-100.00,WSW,240,2.0,6.0,60,-99.99,,,-99.99,,2013-04-27 13:32:00,
2013-04-27 13:41:00,26.0,14.0,-100.00,WSW,240,2.0,6.0,60,-99.99,,,-99.99,,2013-04-27 13:41:00,
2013-04-27 13:52:00,26.0,14.0,-100.00,West,265,2.0,6.0,61,-99.99,,,-99.99,,2013-04-27 13:52:00,
2013-04-27 14:02:00,26.0,14.0,-100.00,West,265,2.0,6.0,61,-99.99,,,-99.99,,2013-04-27 14:02:00,
2013-04-27 14:11:00,26.0,14.0,-100.00,West,265,2.0,6.0,61,-99.99,,,-99.99,,2013-04-27 14:11:00,
2013-04-27 14:21:00,25.0,14.0,-100.00,SW,220,4.0,6.0,61,-99.99,,,-99.99,,2013-04-27 14:21:00,
2013-04-27 14:31:00,25.0,14.0,-100.00,SW,220,4.0,6.0,61,-99.99,,,-99.99,,2013-04-27 14:31:00,
2013-04-27 14:41:00,25.0,14.0,-100.00,SW,220,4.0,6.0,61,-99.99,,,-99.99,,2013-04-27 14:41:00,
2013-04-27 14:52:00,27.0,14.0,-100.00,SW,225,4.0,9.0,58,-99.99,,,-99.99,,2013-04-27 14:52:00,
2013-04-27 15:01:00,27.0,14.0,-100.00,SW,225,4.0,9.0,58,-99.99,,,-99.99,,2013-04-27 15:01:00,
2013-04-27 15:11:00,27.0,14.0,-100.00,SW,225,4.0,9.0,58,-99.99,,,-99.99,,2013-04-27 15:11:00,
2013-04-27 15:21:00,27.0,15.0,-100.00,SSW,200,2.0,4.0,60,-99.99,,,-99.99,,2013-04-27 15:21:00,
2013-04-27 15:33:00,27.0,15.0,-100.00,SSW,200,2.0,4.0,60,-99.99,,,-99.99,,2013-04-27 15:33:00,
2013-04-27 15:42:00,27.0,15.0,-100.00,SSW,200,2.0,4.0,60,-99.99,,,-99.99,,2013-04-27 15:42:00,
2013-04-27 15:52:00,29.0,17.0,-100.00,SW,220,2.0,4.0,59,-99.99,,,-99.99,,2013-04-27 15:52:00,
2013-04-27 16:02:00,29.0,17.0,-100.00,SW,220,2.0,4.0,59,-99.99,,,-99.99,,2013-04-27 16:02:00,
2013-04-27 16:13:00,29.0,17.0,-100.00,SW,220,2.0,4.0,59,-99.99,,,-99.99,,2013-04-27 16:13:00,
2013-04-27 16:22:00,32.0,18.0,-100.00,SW,230,4.0,8.0,55,-99.99,,,-99.99,,2013-04-27 16:22:00,
2013-04-27 16:32:00,32.0,18.0,-100.00,SW,230,4.0,8.0,55,-99.99,,,-99.99,,2013-04-27 16:32:00,
2013-04-27 16:42:00,32.0,18.0,-100.00,SW,230,4.0,8.0,55,-99.99,,,-99.99,,2013-04-27 16:42:00,
2013-04-27 16:52:00,33.0,17.0,-100.00,SW,220,4.0,7.0,51,-99.99,,,-99.99,,2013-04-27 16:52:00,
2013-04-27 17:02:00,33.0,17.0,-100.00,SW,220,4.0,7.0,51,-99.99,,,-99.99,,2013-04-27 17:02:00,
2013-04-27 17:11:00,33.0,17.0,-100.00,SW,220,4.0,7.0,51,-99.99,,,-99.99,,2013-04-27 17:11:00,
2013-04-27 17:22:00,34.0,17.0,-100.00,South,185,2.0,7.0,48,-99.99,,,-99.99,,2013-04-27 17:22:00,
2013-04-27 17:31:00,34.0,17.0,-100.00,South,185,2.0,7.0,48,-99.99,,,-99.99,,2013-04-27 17:31:00,
2013-04-27 17:42:00,34.0,17.0,-100.00,South,185,2.0,7.0,48,-99.99,,,-99.99,,2013-04-27 17:42:00,
2013-04-27 17:52:00,37.0,17.0,-100.00,SSE,160,1.0,3.0,42,-99.99,,,-99.99,,2013-04-27 17:52:00,
2013-04-27 18:02:00,37.0,17.0,-100.00,SSE,160,1.0,3.0,42,-99.99,,,-99.99,,2013-04-27 18:02:00,
2013-04-27 18:11:00,37.0,17.0,-100.00,SSE,160,1.0,3.0,42,-99.99,,,-99.99,,2013-04-27 18:11:00,
2013-04-27 18:21:00,37.0,16.0,-100.00,SSE,160,3.0,5.0,40,-99.99,,,-99.99,,2013-04-27 18:21:00,
2013-04-27 18:32:00,37.0,16.0,-100.00,SSE,160,3.0,5.0,40,-99.99,,,-99.99,,2013-04-27 18:32:00,
2013-04-27 18:41:00,37.0,16.0,-100.00,SSE,160,3.0,5.0,40,-99.99,,,-99.99,,2013-04-27 18:41:00,
2013-04-27 18:51:00,39.0,15.0,-100.00,North,350,1.0,10.0,37,-99.99,,,-99.99,,2013-04-27 18:51:00,
2013-04-27 19:02:00,39.0,15.0,-100.00,North,350,1.0,10.0,37,-99.99,,,-99.99,,2013-04-27 19:02:00,
2013-04-27 19:11:00,39.0,15.0,-100.00,North,350,1.0,10.0,37,-99.99,,,-99.99,,2013-04-27 19:11:00,
2013-04-27 19:21:00,41.0,16.0,-100.00,NE,55,3.0,14.0,35,-99.99,,,-99.99,,2013-04-27 19:21:00,
2013-04-27 19:32:00,41.0,16.0,-100.00,NE,55,3.0,14.0,35,-99.99,,,-99.99,,2013-04-27 19:32:00,
2013-04-27 19:42:00,41.0,16.0,-100.00,NE,55,3.0,14.0,35,-99.99,,,-99.99,,2013-04-27 19:42:00,
2013-04-27 19:52:00,43.0,17.0,-100.00,North,5,6.0,15.0,35,-99.99,,,-99.99,,2013-04-27 19:52:00,
2013-04-27 20:02:00,43.0,17.0,-100.00,North,5,6.0,15.0,35,-99.99,,,-99.99,,2013-04-27 20:02:00,
2013-04-27 20:11:00,43.0,17.0,-100.00,North,5,6.0,15.0,35,-99.99,,,-99.99,,2013-04-27 20:11:00,
2013-04-27 20:21:00,44.0,17.0,-100.00,North,0,9.0,22.0,33,-99.99,,,-99.99,,2013-04-27 20:21:00,
2013-04-27 20:32:00,44.0,17.0,-100.00,North,0,9.0,22.0,33,-99.99,,,-99.99,,2013-04-27 20:32:00,
2013-04-27 20:42:00,44.0,17.0,-100.00,North,0,9.0,22.0,33,-99.99,,,-99.99,,2013-04-27 20:42:00,
2013-04-27 20:52:00,43.0,17.0,-100.00,North,10,10.0,17.0,33,-99.99,,,-99.99,,2013-04-27 20:52:00,
2013-04-27 21:02:00,43.0,17.0,-100.00,North,10,10.0,17.0,33,-99.99,,,-99.99,,2013-04-27 21:02:00,
2013-04-27 21:11:00,43.0,17.0,-100.00,North,10,10.0,17.0,33,-99.99,,,-99.99,,2013-04-27 21:11:00,
2013-04-27 21:21:00,45.0,17.0,-100.00,NNE,15,6.0,16.0,33,-99.99,,,-99.99,,2013-04-27 21:21:00,
2013-04-27 21:32:00,45.0,17.0,-100.00,NNE,15,6.0,16.0,33,-99.99,,,-99.99,,2013-04-27 21:32:00,
2013-04-27 21:42:00,45.0,17.0,-100.00,NNE,15,6.0,16.0,33,-99.99,,,-99.99,,2013-04-27 21:42:00,
2013-04-27 21:53:00,45.0,17.0,-100.00,North,10,9.0,21.0,32,-99.99,,,-99.99,,2013-04-27 21:53:00,
2013-04-27 22:02:00,45.0,17.0,-100.00,North,10,9.0,21.0,32,-99.99,,,-99.99,,2013-04-27 22:02:00,
2013-04-27 22:12:00,45.0,17.0,-100.00,North,10,9.0,21.0,32,-99.99,,,-99.99,,2013-04-27 22:12:00,
2013-04-27 22:22:00,45.0,18.0,-100.00,NNE,30,6.0,20.0,33,-99.99,,,-99.99,,2013-04-27 22:22:00,
2013-04-27 22:32:00,45.0,18.0,-100.00,NNE,30,6.0,20.0,33,-99.99,,,-99.99,,2013-04-27 22:32:00,
2013-04-27 22:42:00,45.0,18.0,-100.00,NNE,30,6.0,20.0,33,-99.99,,,-99.99,,2013-04-27 22:42:00,
2013-04-27 22:52:00,44.0,17.0,-100.00,NNE,25,9.0,21.0,32,-99.99,,,-99.99,,2013-04-27 22:52:00,
2013-04-27 23:02:00,44.0,17.0,-100.00,NNE,25,9.0,21.0,32,-99.99,,,-99.99,,2013-04-27 23:02:00,
2013-04-27 23:11:00,44.0,17.0,-100.00,NNE,25,9.0,21.0,32,-99.99,,,-99.99,,2013-04-27 23:11:00,
2013-04-27 23:22:00,45.0,18.0,-100.00,NE,45,10.0,19.0,32,-99.99,,,-99.99,,2013-04-27 23:22:00,
2013-04-27 23:32:00,45.0,18.0,-100.00,NE,45,10.0,19.0,32,-99.99,,,-99.99,,2013-04-27 23:32:00,
2013-04-27 23:42:00,45.0,18.0,-100.00,NE,45,10.0,19.0,32,-99.99,,,-99.99,,2013-04-27 23:42:00,
2013-04-27 23:52:00,43.0,15.0,-100.00,NE,45,12.0,26.0,31,-99.99,,,-99.99,,2013-04-27 23:52:00,